createdAt,value
2023-04-17T00:00:34.285Z,99.31
2023-04-17T00:03:01.669Z,99.66
2023-04-17T00:05:28.955Z,100.00
2023-04-17T00:07:57.085Z,100.00
2023-04-17T00:10:23.683Z,100.00
2023-04-17T00:12:50.186Z,100.00
2023-04-17T00:15:16.860Z,100.00
2023-04-17T00:17:43.443Z,100.00
2023-04-17T00:20:10.807Z,100.00
2023-04-17T00:22:38.343Z,100.00
2023-04-17T00:25:05.445Z,100.00
2023-04-17T00:27:32.122Z,100.00
2023-04-17T00:29:58.793Z,100.00
2023-04-17T00:32:25.406Z,100.00
2023-04-17T00:34:54.391Z,100.00
2023-04-17T00:37:22.252Z,100.00
2023-04-17T00:39:48.812Z,100.00
2023-04-17T00:42:15.428Z,100.00
2023-04-17T00:44:42.000Z,100.00
2023-04-17T00:47:08.554Z,100.00
2023-04-17T00:49:35.847Z,100.00
2023-04-17T00:52:02.711Z,100.00
2023-04-17T00:54:29.790Z,100.00
2023-04-17T00:56:57.623Z,100.00
2023-04-17T00:59:28.444Z,100.00
2023-04-17T01:01:55.341Z,100.00
2023-04-17T01:04:22.371Z,100.00
2023-04-17T01:06:49.233Z,100.00
2023-04-17T01:09:15.832Z,100.00
2023-04-17T01:11:42.435Z,100.00
2023-04-17T01:14:09.126Z,100.00
2023-04-17T01:16:40.063Z,100.00
2023-04-17T01:19:08.612Z,100.00
2023-04-17T01:21:35.348Z,100.00
2023-04-17T01:24:03.453Z,100.00
2023-04-17T01:26:32.705Z,100.00
2023-04-17T01:29:00.175Z,100.00
2023-04-17T01:31:29.327Z,100.00
2023-04-17T01:33:56.090Z,100.00
2023-04-17T01:36:22.653Z,100.00
2023-04-17T01:38:49.273Z,100.00
2023-04-17T01:41:15.882Z,100.00
2023-04-17T01:43:44.726Z,100.00
2023-04-17T01:46:12.014Z,100.00
2023-04-17T01:48:39.059Z,100.00
2023-04-17T01:51:06.156Z,100.00
2023-04-17T01:53:34.244Z,100.00
2023-04-17T01:56:01.795Z,100.00
2023-04-17T01:58:29.842Z,100.00
2023-04-17T02:00:57.338Z,100.00
2023-04-17T02:03:26.660Z,100.00
2023-04-17T02:05:53.653Z,100.00
2023-04-17T02:08:20.605Z,100.00
2023-04-17T02:10:47.317Z,100.00
2023-04-17T02:13:13.938Z,100.00
2023-04-17T02:15:41.620Z,100.00
2023-04-17T02:18:09.269Z,100.00
2023-04-17T02:20:37.183Z,100.00
2023-04-17T02:23:05.694Z,100.00
2023-04-17T02:25:33.653Z,100.00
2023-04-17T02:28:00.354Z,100.00
2023-04-17T02:30:27.797Z,100.00
2023-04-17T02:32:56.494Z,100.00
2023-04-17T02:35:26.233Z,100.00
2023-04-17T02:37:53.453Z,100.00
2023-04-17T02:40:22.732Z,100.00
2023-04-17T02:42:53.531Z,100.00
2023-04-17T02:45:20.335Z,100.00
2023-04-17T02:47:48.508Z,100.00
2023-04-17T02:50:15.462Z,100.00
2023-04-17T02:52:55.267Z,100.00
2023-04-17T02:55:22.306Z,100.00
2023-04-17T02:57:49.000Z,100.00
2023-04-17T03:00:16.378Z,100.00
2023-04-17T03:02:43.231Z,100.00
2023-04-17T03:05:11.624Z,100.00
2023-04-17T03:07:38.303Z,100.00
2023-04-17T03:10:06.276Z,100.00
2023-04-17T03:12:33.082Z,100.00
2023-04-17T03:15:00.774Z,100.00
2023-04-17T03:17:27.436Z,100.00
2023-04-17T03:19:54.159Z,100.00
2023-04-17T03:22:20.913Z,100.00
2023-04-17T03:24:48.229Z,100.00
2023-04-17T03:27:14.897Z,100.00
2023-04-17T03:29:42.294Z,100.00
2023-04-17T03:32:09.555Z,100.00
2023-04-17T03:34:36.176Z,100.00
2023-04-17T03:37:02.744Z,100.00
2023-04-17T03:39:31.048Z,100.00
2023-04-17T03:41:57.666Z,100.00
2023-04-17T03:44:24.191Z,100.00
2023-04-17T03:46:50.784Z,100.00
2023-04-17T03:49:17.513Z,100.00
2023-04-17T03:51:44.332Z,100.00
2023-04-17T03:54:16.799Z,100.00
2023-04-17T03:56:45.779Z,100.00
2023-04-17T03:59:13.628Z,100.00
2023-04-17T04:01:44.278Z,100.00
2023-04-17T04:04:17.544Z,100.00
2023-04-17T04:06:44.991Z,100.00
2023-04-17T04:09:15.091Z,100.00
2023-04-17T04:11:42.452Z,100.00
2023-04-17T04:14:09.114Z,100.00
2023-04-17T04:16:37.182Z,100.00
2023-04-17T04:19:12.074Z,100.00
2023-04-17T04:21:38.994Z,100.00
2023-04-17T04:24:08.587Z,100.00
2023-04-17T04:26:37.820Z,100.00
2023-04-17T04:29:04.492Z,100.00
2023-04-17T04:32:09.611Z,100.00
2023-04-17T04:34:41.896Z,100.00
2023-04-17T04:37:08.553Z,100.00
2023-04-17T04:39:43.728Z,100.00
2023-04-17T04:42:21.792Z,100.00
2023-04-17T04:45:09.754Z,100.00
2023-04-17T04:47:36.472Z,100.00
2023-04-17T04:50:03.368Z,100.00
2023-04-17T04:52:30.994Z,100.00
2023-04-17T04:55:01.769Z,100.00
2023-04-17T04:57:30.558Z,100.00
2023-04-17T05:00:00.210Z,100.00
2023-04-17T05:02:32.597Z,100.00
2023-04-17T05:05:00.710Z,100.00
2023-04-17T05:07:30.167Z,100.00
2023-04-17T05:09:57.002Z,100.00
2023-04-17T05:12:24.165Z,100.00
2023-04-17T05:14:50.804Z,100.00
2023-04-17T05:17:19.470Z,100.00
2023-04-17T05:19:46.093Z,100.00
2023-04-17T05:22:13.540Z,100.00
2023-04-17T05:24:56.311Z,100.00
2023-04-17T05:27:22.875Z,100.00
2023-04-17T05:29:49.491Z,100.00
2023-04-17T05:32:16.831Z,100.00
2023-04-17T05:34:50.605Z,100.00
2023-04-17T05:37:20.786Z,100.00
2023-04-17T05:39:47.417Z,100.00
2023-04-17T05:42:14.005Z,100.00
2023-04-17T05:44:40.627Z,100.00
2023-04-17T05:47:07.690Z,100.00
2023-04-17T05:49:34.387Z,100.00
2023-04-17T05:52:01.100Z,100.00
2023-04-17T05:54:30.268Z,100.00
2023-04-17T05:56:57.714Z,100.00
2023-04-17T05:59:25.252Z,100.00
2023-04-17T06:01:52.502Z,100.00
2023-04-17T06:04:21.864Z,100.00
2023-04-17T06:06:49.965Z,100.00
2023-04-17T06:09:16.951Z,100.00
2023-04-17T06:11:43.527Z,100.00
2023-04-17T06:14:10.319Z,100.00
2023-04-17T06:16:38.234Z,100.00
2023-04-17T06:19:04.842Z,100.00
2023-04-17T06:21:32.144Z,100.00
2023-04-17T06:24:00.499Z,100.00
2023-04-17T06:26:27.060Z,100.00
2023-04-17T06:28:54.707Z,100.00
2023-04-17T06:31:23.068Z,100.00
2023-04-17T06:33:50.779Z,100.00
2023-04-17T06:36:20.062Z,100.00
2023-04-17T06:38:48.933Z,100.00
2023-04-17T06:41:17.551Z,100.00
2023-04-17T06:43:44.478Z,100.00
2023-04-17T06:46:14.309Z,100.00
2023-04-17T06:48:40.948Z,100.00
2023-04-17T06:51:07.556Z,100.00
2023-04-17T06:53:34.124Z,99.95
2023-04-17T06:56:00.744Z,100.00
2023-04-17T06:58:27.285Z,99.30
2023-04-17T07:00:53.930Z,98.50
2023-04-17T07:03:20.733Z,97.88
2023-04-17T07:05:47.559Z,96.88
2023-04-17T07:08:15.839Z,97.34
2023-04-17T07:10:42.508Z,97.50
2023-04-17T07:13:09.033Z,97.39
2023-04-17T07:15:35.696Z,97.00
2023-04-17T07:18:02.403Z,96.45
2023-04-17T07:20:29.121Z,96.07
2023-04-17T07:22:57.449Z,95.83
2023-04-17T07:25:24.311Z,95.68
2023-04-17T07:27:51.232Z,95.70
2023-04-17T07:30:17.868Z,95.67
2023-04-17T07:32:44.631Z,94.53
2023-04-17T07:35:14.116Z,93.82
2023-04-17T07:37:41.181Z,93.33
2023-04-17T07:40:09.846Z,93.31
2023-04-17T07:42:37.131Z,93.65
2023-04-17T07:45:05.209Z,91.98
2023-04-17T07:47:31.891Z,91.57
2023-04-17T07:49:58.449Z,90.88
2023-04-17T07:52:25.058Z,89.21
2023-04-17T07:54:51.649Z,89.37
2023-04-17T07:57:18.984Z,88.33
2023-04-17T07:59:45.864Z,88.18
2023-04-17T08:02:12.614Z,87.81
2023-04-17T08:04:40.299Z,87.09
2023-04-17T08:07:10.471Z,86.89
2023-04-17T08:09:37.390Z,86.79
2023-04-17T08:12:04.280Z,86.52
2023-04-17T08:14:30.986Z,85.79
2023-04-17T08:16:58.327Z,86.53
2023-04-17T08:19:25.021Z,84.63
2023-04-17T08:22:00.410Z,85.13
2023-04-17T08:24:27.348Z,82.80
2023-04-17T08:26:53.932Z,83.51
2023-04-17T08:29:20.589Z,82.97
2023-04-17T08:31:47.189Z,82.62
2023-04-17T08:34:15.558Z,80.88
2023-04-17T08:36:43.127Z,79.03
2023-04-17T08:39:12.211Z,79.63
2023-04-17T08:41:49.037Z,76.31
2023-04-17T08:44:20.656Z,75.74
2023-04-17T08:46:47.602Z,75.30
2023-04-17T08:49:14.935Z,74.01
2023-04-17T08:51:42.519Z,72.25
2023-04-17T08:54:09.074Z,72.27
2023-04-17T08:56:36.421Z,70.27
2023-04-17T08:59:03.043Z,72.75
2023-04-17T09:01:30.012Z,70.41
2023-04-17T09:03:59.644Z,68.06
2023-04-17T09:06:27.480Z,67.91
2023-04-17T09:09:04.898Z,64.37
2023-04-17T09:11:31.537Z,64.40
2023-04-17T09:13:58.118Z,64.61
2023-04-17T09:16:25.679Z,65.64
2023-04-17T09:19:05.638Z,64.24
2023-04-17T09:21:32.485Z,64.08
2023-04-17T09:23:59.694Z,63.33
2023-04-17T09:26:27.728Z,62.71
2023-04-17T09:29:10.889Z,61.86
2023-04-17T09:31:39.471Z,62.48
2023-04-17T09:34:13.958Z,60.44
2023-04-17T09:36:42.679Z,60.69
2023-04-17T09:39:26.132Z,58.63
2023-04-17T09:42:06.283Z,59.75
2023-04-17T09:44:36.285Z,59.48
2023-04-17T09:47:04.777Z,57.36
2023-04-17T09:49:42.099Z,55.37
2023-04-17T09:52:08.951Z,55.96
2023-04-17T09:54:39.064Z,56.33
2023-04-17T09:57:10.185Z,54.98
2023-04-17T09:59:41.832Z,55.10
2023-04-17T10:02:09.531Z,53.07
2023-04-17T10:04:39.398Z,53.10
2023-04-17T10:07:06.467Z,52.41
2023-04-17T10:09:33.108Z,53.38
2023-04-17T10:12:02.435Z,51.83
2023-04-17T10:14:37.400Z,52.61
2023-04-17T10:17:31.517Z,52.86
2023-04-17T10:20:17.687Z,54.42
2023-04-17T10:22:44.986Z,52.31
2023-04-17T10:25:14.505Z,52.43
2023-04-17T10:27:41.227Z,51.67
2023-04-17T10:30:10.247Z,50.80
2023-04-17T10:32:37.058Z,50.68
2023-04-17T10:35:16.010Z,50.24
2023-04-17T10:37:48.673Z,50.37
2023-04-17T10:40:29.192Z,51.49
2023-04-17T10:43:05.085Z,51.24
2023-04-17T10:45:59.793Z,49.99
2023-04-17T10:48:34.880Z,49.57
2023-04-17T10:51:21.483Z,50.75
2023-04-17T10:53:55.322Z,52.64
2023-04-17T10:56:30.842Z,51.12
2023-04-17T10:59:30.013Z,49.57
2023-04-17T11:02:00.721Z,50.53
2023-04-17T11:04:29.442Z,50.35
2023-04-17T11:06:56.214Z,49.95
2023-04-17T11:09:28.137Z,49.25
2023-04-17T11:11:58.013Z,49.87
2023-04-17T11:14:26.597Z,47.99
2023-04-17T11:16:53.222Z,48.88
2023-04-17T11:19:22.833Z,49.01
2023-04-17T11:21:52.077Z,49.53
2023-04-17T11:24:29.615Z,47.50
2023-04-17T11:26:59.597Z,46.71
2023-04-17T11:29:27.147Z,47.25
2023-04-17T11:31:56.338Z,47.38
2023-04-17T11:34:25.178Z,46.70
2023-04-17T11:36:53.587Z,45.05
2023-04-17T11:39:21.757Z,45.83
2023-04-17T11:41:49.438Z,46.58
2023-04-17T11:44:18.494Z,45.65
2023-04-17T11:46:51.747Z,45.11
2023-04-17T11:49:30.174Z,44.71
2023-04-17T11:51:59.130Z,46.02
2023-04-17T11:54:29.995Z,45.66
2023-04-17T11:57:13.675Z,45.11
2023-04-17T11:59:42.265Z,45.34
2023-04-17T12:02:09.830Z,45.06
2023-04-17T12:04:38.252Z,44.99
2023-04-17T12:07:06.251Z,44.50
2023-04-17T12:09:34.188Z,44.63
2023-04-17T12:12:08.147Z,44.31
2023-04-17T12:14:35.183Z,46.29
2023-04-17T12:17:02.408Z,45.73
2023-04-17T12:19:29.847Z,45.94
2023-04-17T12:21:56.767Z,44.92
2023-04-17T12:24:24.976Z,45.07
2023-04-17T12:26:52.920Z,42.92
2023-04-17T12:29:26.563Z,43.15
2023-04-17T12:32:03.715Z,42.97
2023-04-17T12:34:30.817Z,43.01
2023-04-17T12:36:57.349Z,43.32
2023-04-17T12:39:24.106Z,43.75
2023-04-17T12:41:50.655Z,42.90
2023-04-17T12:44:17.190Z,43.90
2023-04-17T12:46:43.762Z,45.64
2023-04-17T12:49:10.543Z,43.91
2023-04-17T12:51:37.964Z,43.65
2023-04-17T12:54:04.912Z,44.26
2023-04-17T12:56:31.866Z,42.88
2023-04-17T12:59:00.576Z,42.63
2023-04-17T13:01:28.799Z,43.17
2023-04-17T13:03:55.579Z,44.63
2023-04-17T13:06:22.442Z,43.93
2023-04-17T13:08:48.991Z,44.50
2023-04-17T13:11:16.287Z,46.21
2023-04-17T13:13:42.811Z,46.20
2023-04-17T13:16:10.414Z,45.84
2023-04-17T13:18:37.507Z,46.55
2023-04-17T13:21:04.139Z,46.05
2023-04-17T13:23:30.811Z,45.71
2023-04-17T13:25:57.363Z,45.02
2023-04-17T13:28:23.877Z,45.52
2023-04-17T13:30:50.553Z,45.04
2023-04-17T13:33:17.300Z,45.77
2023-04-17T13:35:43.870Z,45.57
2023-04-17T13:38:10.341Z,45.45
2023-04-17T13:40:38.668Z,44.76
2023-04-17T13:43:06.650Z,45.36
2023-04-17T13:45:33.378Z,45.04
2023-04-17T13:48:00.402Z,44.77
2023-04-17T13:50:27.450Z,44.58
2023-04-17T13:52:54.088Z,43.73
2023-04-17T13:55:20.704Z,43.79
2023-04-17T13:57:47.294Z,44.72
2023-04-17T14:00:14.619Z,43.72
2023-04-17T14:02:41.760Z,43.91
2023-04-17T14:05:09.091Z,43.52
2023-04-17T14:07:35.762Z,42.91
2023-04-17T14:10:02.398Z,42.27
2023-04-17T14:12:28.962Z,42.35
2023-04-17T14:14:57.011Z,42.76
2023-04-17T14:17:24.968Z,43.20
2023-04-17T14:19:52.449Z,43.04
2023-04-17T14:22:20.005Z,43.00
2023-04-17T14:24:46.506Z,44.18
2023-04-17T14:27:13.254Z,43.50
2023-04-17T14:29:39.860Z,43.61
2023-04-17T14:32:06.427Z,43.27
2023-04-17T14:34:32.918Z,43.15
2023-04-17T14:36:59.499Z,44.30
2023-04-17T14:39:26.073Z,43.65
2023-04-17T14:41:52.699Z,42.66
2023-04-17T14:44:20.374Z,42.98
2023-04-17T14:46:47.635Z,43.43
2023-04-17T14:49:14.468Z,44.60
2023-04-17T14:51:41.203Z,44.93
2023-04-17T14:54:10.672Z,45.90
2023-04-17T14:56:37.140Z,45.21
2023-04-17T14:59:05.136Z,45.16
2023-04-17T15:01:31.761Z,45.25
2023-04-17T15:03:58.878Z,44.51
2023-04-17T15:06:26.144Z,45.96
2023-04-17T15:08:52.684Z,44.79
2023-04-17T15:11:19.228Z,47.13
2023-04-17T15:13:45.802Z,45.31
2023-04-17T15:16:12.448Z,46.05
2023-04-17T15:18:39.400Z,45.91
2023-04-17T15:21:06.298Z,46.31
2023-04-17T15:23:34.525Z,45.80
2023-04-17T15:26:01.356Z,46.02
2023-04-17T15:28:28.116Z,44.47
2023-04-17T15:30:55.709Z,45.46
2023-04-17T15:33:22.293Z,45.84
2023-04-17T15:35:54.793Z,44.66
2023-04-17T15:38:21.413Z,44.70
2023-04-17T15:40:47.984Z,45.10
2023-04-17T15:43:14.669Z,45.26
2023-04-17T15:45:41.399Z,45.09
2023-04-17T15:48:08.118Z,45.49
2023-04-17T15:50:35.476Z,45.22
2023-04-17T15:53:02.202Z,45.69
2023-04-17T15:55:28.804Z,45.63
2023-04-17T15:57:55.917Z,45.51
2023-04-17T16:00:22.720Z,43.43
2023-04-17T16:02:49.386Z,43.59
2023-04-17T16:05:16.938Z,43.78
2023-04-17T16:07:44.366Z,43.47
2023-04-17T16:10:14.554Z,43.67
2023-04-17T16:12:43.134Z,44.21
2023-04-17T16:15:17.665Z,43.58
2023-04-17T16:17:45.423Z,44.59
2023-04-17T16:20:12.478Z,45.12
2023-04-17T16:22:39.049Z,45.32
2023-04-17T16:25:06.398Z,45.63
2023-04-17T16:27:33.361Z,46.13
2023-04-17T16:30:00.092Z,46.32
2023-04-17T16:32:27.287Z,46.64
2023-04-17T16:34:53.908Z,46.72
2023-04-17T16:37:20.586Z,46.64
2023-04-17T16:39:47.317Z,47.14
2023-04-17T16:42:14.461Z,47.41
2023-04-17T16:44:41.096Z,47.66
2023-04-17T16:47:13.380Z,47.60
2023-04-17T16:49:41.047Z,47.55
2023-04-17T16:52:07.700Z,46.94
2023-04-17T16:54:34.722Z,47.17
2023-04-17T16:57:01.382Z,48.17
2023-04-17T16:59:27.891Z,47.65
2023-04-17T17:01:54.540Z,47.93
2023-04-17T17:04:21.161Z,47.95
2023-04-17T17:06:47.836Z,47.98
2023-04-17T17:09:14.580Z,47.88
2023-04-17T17:11:41.253Z,48.03
2023-04-17T17:14:07.789Z,48.19
2023-04-17T17:16:34.372Z,48.49
2023-04-17T17:19:00.972Z,48.61
2023-04-17T17:21:28.584Z,49.34
2023-04-17T17:23:55.207Z,49.09
2023-04-17T17:26:21.815Z,49.74
2023-04-17T17:28:51.233Z,48.73
2023-04-17T17:31:18.216Z,49.18
2023-04-17T17:33:49.845Z,48.66
2023-04-17T17:36:16.749Z,48.93
2023-04-17T17:38:44.032Z,48.83
2023-04-17T17:41:10.683Z,49.17
2023-04-17T17:43:37.237Z,49.71
2023-04-17T17:46:03.861Z,49.67
2023-04-17T17:48:30.524Z,49.94
2023-04-17T17:50:57.578Z,49.84
2023-04-17T17:53:26.679Z,50.08
2023-04-17T17:55:54.642Z,49.74
2023-04-17T17:58:21.811Z,49.83
2023-04-17T18:00:49.234Z,50.03
2023-04-17T18:03:16.719Z,50.01
2023-04-17T18:05:44.352Z,49.61
2023-04-17T18:08:10.923Z,49.37
2023-04-17T18:10:37.521Z,49.29
2023-04-17T18:13:04.684Z,49.08
2023-04-17T18:15:31.785Z,48.28
2023-04-17T18:17:58.452Z,47.81
2023-04-17T18:20:25.006Z,48.40
2023-04-17T18:22:51.994Z,47.84
2023-04-17T18:25:18.705Z,47.62
2023-04-17T18:27:45.231Z,47.83
2023-04-17T18:30:12.300Z,47.56
2023-04-17T18:32:38.921Z,47.68
2023-04-17T18:35:06.229Z,47.82
2023-04-17T18:37:32.944Z,47.29
2023-04-17T18:39:59.526Z,47.62
2023-04-17T18:42:26.055Z,47.62
2023-04-17T18:44:52.581Z,47.79
2023-04-17T18:47:19.182Z,47.92
2023-04-17T18:49:45.767Z,48.17
2023-04-17T18:52:12.374Z,48.14
2023-04-17T18:54:38.957Z,47.42
2023-04-17T18:57:05.574Z,47.65
2023-04-17T18:59:32.126Z,47.88
2023-04-17T19:01:58.725Z,47.01
2023-04-17T19:04:25.940Z,47.12
2023-04-17T19:06:52.462Z,47.00
2023-04-17T19:09:19.095Z,46.87
2023-04-17T19:11:45.927Z,47.08
2023-04-17T19:14:12.744Z,46.94
2023-04-17T19:16:39.579Z,46.29
2023-04-17T19:19:06.369Z,46.16
2023-04-17T19:21:33.108Z,46.64
2023-04-17T19:23:59.662Z,45.67
2023-04-17T19:26:26.203Z,46.29
2023-04-17T19:28:52.856Z,46.54
2023-04-17T19:31:19.390Z,45.98
2023-04-17T19:33:46.006Z,45.60
2023-04-17T19:36:12.536Z,45.51
2023-04-17T19:38:39.193Z,45.42
2023-04-17T19:41:14.676Z,44.88
2023-04-17T19:43:42.502Z,44.99
2023-04-17T19:46:09.534Z,44.63
2023-04-17T19:48:36.948Z,44.98
2023-04-17T19:51:08.047Z,44.33
2023-04-17T19:53:36.229Z,44.52
2023-04-17T19:56:06.306Z,44.57
2023-04-17T19:58:34.433Z,44.59
2023-04-17T20:01:01.534Z,44.88
2023-04-17T20:03:29.937Z,44.80
2023-04-17T20:05:57.381Z,45.02
2023-04-17T20:08:24.952Z,45.64
2023-04-17T20:10:51.562Z,46.50
2023-04-17T20:13:18.204Z,46.56
2023-04-17T20:15:44.721Z,46.83
2023-04-17T20:18:11.920Z,46.87
2023-04-17T20:20:39.061Z,46.57
2023-04-17T20:23:05.775Z,46.57
2023-04-17T20:25:32.449Z,46.38
2023-04-17T20:27:59.014Z,46.59
2023-04-17T20:30:25.698Z,46.18
2023-04-17T20:32:52.525Z,46.57
2023-04-17T20:35:23.544Z,46.69
2023-04-17T20:37:51.672Z,47.16
2023-04-17T20:40:18.978Z,46.91
2023-04-17T20:42:46.336Z,47.33
2023-04-17T20:45:13.009Z,47.85
2023-04-17T20:47:46.308Z,48.13
2023-04-17T20:50:22.012Z,48.27
2023-04-17T20:52:48.569Z,49.01
2023-04-17T20:55:15.307Z,49.36
2023-04-17T20:57:41.834Z,50.92
2023-04-17T21:00:09.064Z,51.47
2023-04-17T21:02:35.805Z,52.66
2023-04-17T21:05:03.986Z,54.19
2023-04-17T21:07:30.799Z,54.76
2023-04-17T21:09:57.341Z,55.26
2023-04-17T21:12:23.893Z,56.04
2023-04-17T21:14:50.506Z,56.57
2023-04-17T21:17:17.102Z,58.77
2023-04-17T21:19:43.677Z,58.74
2023-04-17T21:22:11.499Z,60.21
2023-04-17T21:24:39.323Z,61.50
2023-04-17T21:27:05.974Z,62.04
2023-04-17T21:29:32.530Z,62.46
2023-04-17T21:31:59.486Z,64.19
2023-04-17T21:34:26.265Z,66.49
2023-04-17T21:36:54.336Z,69.24
2023-04-17T21:39:21.827Z,70.47
2023-04-17T21:41:48.647Z,71.34
2023-04-17T21:44:15.501Z,73.04
2023-04-17T21:46:45.065Z,73.53
2023-04-17T21:49:12.045Z,74.20
2023-04-17T21:51:38.584Z,75.03
2023-04-17T21:54:05.250Z,76.44
2023-04-17T21:56:31.876Z,76.27
2023-04-17T21:58:58.430Z,76.64
2023-04-17T22:01:25.098Z,77.10
2023-04-17T22:03:51.795Z,78.51
2023-04-17T22:06:18.482Z,79.69
2023-04-17T22:08:45.137Z,79.05
2023-04-17T22:11:11.963Z,79.13
2023-04-17T22:13:38.641Z,78.65
2023-04-17T22:16:06.140Z,79.37
2023-04-17T22:18:32.708Z,80.11
2023-04-17T22:20:59.285Z,79.38
2023-04-17T22:23:25.849Z,80.35
2023-04-17T22:25:52.447Z,80.79
2023-04-17T22:28:19.276Z,80.89
2023-04-17T22:30:50.425Z,80.87
2023-04-17T22:33:17.024Z,82.35
2023-04-17T22:35:43.652Z,81.87
2023-04-17T22:38:10.980Z,82.67
2023-04-17T22:40:38.026Z,81.80
2023-04-17T22:43:04.556Z,81.72
2023-04-17T22:45:31.167Z,81.60
2023-04-17T22:47:57.842Z,81.82
2023-04-17T22:50:24.394Z,82.23
2023-04-17T22:52:51.232Z,82.10
2023-04-17T22:55:17.839Z,81.78
2023-04-17T22:57:44.562Z,81.30
2023-04-17T23:00:11.538Z,80.64
2023-04-17T23:02:38.190Z,80.51
2023-04-17T23:05:06.060Z,81.06
2023-04-17T23:07:32.862Z,81.08
2023-04-17T23:09:59.449Z,79.44
2023-04-17T23:12:26.034Z,80.78
2023-04-17T23:14:52.706Z,80.64
2023-04-17T23:17:19.290Z,79.61
2023-04-17T23:19:46.161Z,80.14
2023-04-17T23:22:12.720Z,79.95
2023-04-17T23:24:39.295Z,79.52
2023-04-17T23:27:05.958Z,80.52
2023-04-17T23:29:32.518Z,80.13
2023-04-17T23:31:59.155Z,80.87
2023-04-17T23:34:27.771Z,80.37
2023-04-17T23:36:54.330Z,79.69
2023-04-17T23:39:20.868Z,80.52
2023-04-17T23:41:47.820Z,81.02
2023-04-17T23:44:14.625Z,81.11
2023-04-17T23:46:41.451Z,80.54
2023-04-17T23:49:08.074Z,80.52
2023-04-17T23:51:34.955Z,80.61
2023-04-17T23:54:01.542Z,81.74
2023-04-17T23:56:29.983Z,81.04
2023-04-17T23:58:57.142Z,80.83
